Time,TemperatureF,DewpointF,PressureIn,WindDirection,WindDirectionDegrees,WindSpeedMPH,WindSpeedGustMPH,Humidity,HourlyPrecipIn,Conditions,Clouds,dailyrainin,SoftwareType,DateUTC
2013-07-02 00:05:00,62.0,52.1,30.01,NNE,26,0.0,0.0,70,0.00,,,0.00,Wunderground v.1.13,2013-07-02 05:05:00,
2013-07-02 00:15:00,61.6,51.7,30.01,NNE,26,0.0,0.0,70,0.00,,,0.00,Wunderground v.1.13,2013-07-02 05:15:00,
2013-07-02 00:20:00,61.3,51.4,30.01,NNE,26,0.0,0.0,70,0.00,,,0.00,Wunderground v.1.13,2013-07-02 05:20:00,
2013-07-02 00:30:00,61.2,51.7,30.01,NNE,26,0.0,0.0,71,0.00,,,0.00,Wunderground v.1.13,2013-07-02 05:30:00,
2013-07-02 00:35:00,61.0,51.5,30.01,NNE,26,0.0,1.0,71,0.00,,,0.00,Wunderground v.1.13,2013-07-02 05:35:00,
2013-07-02 00:45:00,60.7,51.6,30.01,NNE,26,0.0,1.0,72,0.00,,,0.00,Wunderground v.1.13,2013-07-02 05:45:00,
2013-07-02 00:50:00,60.7,51.6,30.01,NNE,26,0.0,1.0,72,0.00,,,0.00,Wunderground v.1.13,2013-07-02 05:50:00,
2013-07-02 01:00:00,60.2,51.1,30.01,NNE,26,0.0,1.0,72,0.00,,,0.00,Wunderground v.1.13,2013-07-02 06:00:00,
2013-07-02 01:05:00,59.9,50.8,30.01,NNE,26,0.0,0.0,72,0.00,,,0.00,Wunderground v.1.13,2013-07-02 06:05:00,
2013-07-02 01:15:00,59.5,50.8,30.00,NNE,26,0.0,0.0,73,0.00,,,0.00,Wunderground v.1.13,2013-07-02 06:15:00,
2013-07-02 01:25:00,59.3,51.0,30.00,NNE,26,0.0,0.0,74,0.00,,,0.00,Wunderground v.1.13,2013-07-02 06:25:00,
2013-07-02 01:30:00,59.2,50.9,30.00,NNE,26,0.0,0.0,74,0.00,,,0.00,Wunderground v.1.13,2013-07-02 06:30:00,
2013-07-02 01:40:00,59.2,50.9,30.00,NNE,26,0.0,0.0,74,0.00,,,0.00,Wunderground v.1.13,2013-07-02 06:40:00,
2013-07-02 01:45:00,59.2,50.9,30.01,NNE,26,0.0,0.0,74,0.00,,,0.00,Wunderground v.1.13,2013-07-02 06:45:00,
2013-07-02 01:55:00,59.0,51.1,30.01,NNE,26,0.0,0.0,75,0.00,,,0.00,Wunderground v.1.13,2013-07-02 06:55:00,
2013-07-02 02:00:00,59.0,51.1,30.01,NNE,26,0.0,0.0,75,0.00,,,0.00,Wunderground v.1.13,2013-07-02 07:00:00,
2013-07-02 02:05:00,58.9,51.0,30.01,NNE,26,0.0,0.0,75,0.00,,,0.00,Wunderground v.1.13,2013-07-02 07:05:00,
2013-07-02 02:15:00,58.6,51.1,30.00,NNE,26,0.0,0.0,76,0.00,,,0.00,Wunderground v.1.13,2013-07-02 07:15:00,
2013-07-02 02:25:00,58.1,51.3,30.00,NNE,26,0.0,0.0,78,0.00,,,0.00,Wunderground v.1.13,2013-07-02 07:25:00,
2013-07-02 02:35:00,57.8,51.7,30.00,NNE,26,0.0,0.0,80,0.00,,,0.00,Wunderground v.1.13,2013-07-02 07:35:00,
2013-07-02 02:40:00,57.6,51.5,30.00,NNE,26,0.0,0.0,80,0.00,,,0.00,Wunderground v.1.13,2013-07-02 07:40:00,
2013-07-02 02:45:00,57.5,51.4,30.00,NNE,26,0.0,0.0,80,0.00,,,0.00,Wunderground v.1.13,2013-07-02 07:45:00,
2013-07-02 02:50:00,57.3,51.5,30.00,NNE,26,0.0,0.0,81,0.00,,,0.00,Wunderground v.1.13,2013-07-02 07:50:00,
2013-07-02 02:55:00,57.3,51.5,30.00,NNE,26,0.0,0.0,81,0.00,,,0.00,Wunderground v.1.13,2013-07-02 07:55:00,
2013-07-02 03:05:00,57.2,51.4,30.01,NNE,26,0.0,0.0,81,0.00,,,0.00,Wunderground v.1.13,2013-07-02 08:05:00,
2013-07-02 03:15:00,57.0,51.6,30.01,NNE,26,0.0,0.0,82,0.00,,,0.00,Wunderground v.1.13,2013-07-02 08:15:00,
2013-07-02 03:20:00,57.0,51.6,30.01,NNE,26,0.0,0.0,82,0.00,,,0.00,Wunderground v.1.13,2013-07-02 08:20:00,
2013-07-02 03:25:00,56.9,51.5,30.01,NNE,26,0.0,0.0,82,0.00,,,0.00,Wunderground v.1.13,2013-07-02 08:25:00,
2013-07-02 03:35:00,56.9,51.5,30.00,NNE,26,0.0,0.0,82,0.00,,,0.00,Wunderground v.1.13,2013-07-02 08:35:00,
2013-07-02 03:45:00,56.7,51.6,30.00,NNE,26,0.0,0.0,83,0.00,,,0.00,Wunderground v.1.13,2013-07-02 08:45:00,
2013-07-02 03:50:00,56.7,51.6,30.00,NNE,26,0.0,0.0,83,0.00,,,0.00,Wunderground v.1.13,2013-07-02 08:50:00,
2013-07-02 03:55:00,56.6,51.5,30.00,NNE,26,0.0,0.0,83,0.00,,,0.00,Wunderground v.1.13,2013-07-02 08:55:00,
2013-07-02 04:05:00,56.3,51.5,30.01,NNE,26,0.0,0.0,84,0.00,,,0.00,Wunderground v.1.13,2013-07-02 09:05:00,
2013-07-02 04:15:00,56.0,51.2,30.01,NNE,26,0.0,0.0,84,0.00,,,0.00,Wunderground v.1.13,2013-07-02 09:15:00,
2013-07-02 04:25:00,55.7,51.3,30.01,NNE,26,0.0,0.0,85,0.00,,,0.00,Wunderground v.1.13,2013-07-02 09:25:00,
2013-07-02 04:35:00,55.6,51.5,30.01,NNE,26,0.0,0.0,86,0.00,,,0.00,Wunderground v.1.13,2013-07-02 09:35:00,
2013-07-02 04:45:00,55.4,51.6,30.01,NNE,26,0.0,0.0,87,0.00,,,0.00,Wunderground v.1.13,2013-07-02 09:45:00,
2013-07-02 04:55:00,55.3,51.5,30.01,NNE,26,0.0,0.0,87,0.00,,,0.00,Wunderground v.1.13,2013-07-02 09:55:00,
2013-07-02 05:05:00,55.1,51.3,30.01,NNE,26,0.0,0.0,87,0.00,,,0.00,Wunderground v.1.13,2013-07-02 10:05:00,
2013-07-02 05:15:00,55.0,51.5,30.01,NNE,26,0.0,0.0,88,0.00,,,0.00,Wunderground v.1.13,2013-07-02 10:15:00,
2013-07-02 05:20:00,55.0,51.5,30.01,NNE,26,0.0,0.0,88,0.00,,,0.00,Wunderground v.1.13,2013-07-02 10:20:00,
2013-07-02 05:30:00,54.8,51.6,30.02,NNE,26,0.0,0.0,89,0.00,,,0.00,Wunderground v.1.13,2013-07-02 10:30:00,
2013-07-02 05:40:00,54.7,51.5,30.02,NNE,26,0.0,0.0,89,0.00,,,0.00,Wunderground v.1.13,2013-07-02 10:40:00,
2013-07-02 05:50:00,54.7,51.5,30.02,NNE,26,0.0,0.0,89,0.00,,,0.00,Wunderground v.1.13,2013-07-02 10:50:00,
2013-07-02 06:00:00,54.8,51.6,30.02,NNE,26,0.0,0.0,89,0.00,,,0.00,Wunderground v.1.13,2013-07-02 11:00:00,
2013-07-02 06:05:00,55.1,51.9,30.02,NNE,26,0.0,0.0,89,0.00,,,0.00,Wunderground v.1.13,2013-07-02 11:05:00,
2013-07-02 06:15:00,55.4,51.9,30.02,NNE,26,0.0,0.0,88,0.00,,,0.00,Wunderground v.1.13,2013-07-02 11:15:00,
2013-07-02 06:20:00,55.6,51.8,30.02,NNE,26,0.0,0.0,87,0.00,,,0.00,Wunderground v.1.13,2013-07-02 11:20:00,
2013-07-02 06:30:00,56.0,51.6,30.02,NNE,26,0.0,0.0,85,0.00,,,0.00,Wunderground v.1.13,2013-07-02 11:30:00,
2013-07-02 06:35:00,56.5,51.4,30.02,NNE,26,0.0,0.0,83,0.00,,,0.00,Wunderground v.1.13,2013-07-02 11:35:00,
2013-07-02 06:45:00,57.5,51.0,30.03,NNE,26,0.0,0.0,79,0.00,,,0.00,Wunderground v.1.13,2013-07-02 11:45:00,
2013-07-02 06:50:00,58.1,51.3,30.03,NNE,26,0.0,0.0,78,0.00,,,0.00,Wunderground v.1.13,2013-07-02 11:50:00,
2013-07-02 07:00:00,59.0,50.7,30.03,NNE,26,0.0,0.0,74,0.00,,,0.00,Wunderground v.1.13,2013-07-02 12:00:00,
2013-07-02 07:05:00,59.6,50.6,30.03,NNE,26,0.0,0.0,72,0.00,,,0.00,Wunderground v.1.13,2013-07-02 12:05:00,
2013-07-02 07:15:00,60.2,50.0,30.03,NNE,26,0.0,0.0,69,0.00,,,0.00,Wunderground v.1.13,2013-07-02 12:15:00,
2013-07-02 07:20:00,60.7,50.5,30.03,NNE,21,0.0,0.0,69,0.00,,,0.00,Wunderground v.1.13,2013-07-02 12:20:00,
2013-07-02 07:25:00,61.2,49.3,30.03,NE,42,1.0,1.0,65,0.00,,,0.00,Wunderground v.1.13,2013-07-02 12:25:00,
2013-07-02 07:35:00,61.8,49.9,30.03,NNE,29,0.0,1.0,65,0.00,,,0.00,Wunderground v.1.13,2013-07-02 12:35:00,
2013-07-02 07:45:00,62.4,49.2,30.03,NNE,29,0.0,1.0,62,0.00,,,0.00,Wunderground v.1.13,2013-07-02 12:45:00,
2013-07-02 07:50:00,62.9,49.2,30.03,NNE,30,0.0,1.0,61,0.00,,,0.00,Wunderground v.1.13,2013-07-02 12:50:00,
2013-07-02 08:00:00,63.5,48.0,30.03,NNE,33,0.0,1.0,57,0.00,,,0.00,Wunderground v.1.13,2013-07-02 13:00:00,
2013-07-02 08:05:00,63.9,47.9,30.03,NNE,33,0.0,7.0,56,0.00,,,0.00,Wunderground v.1.13,2013-07-02 13:05:00,
2013-07-02 08:15:00,64.3,48.3,30.03,NNE,14,0.0,7.0,56,0.00,,,0.00,Wunderground v.1.13,2013-07-02 13:15:00,
2013-07-02 08:25:00,64.8,47.3,30.03,NNE,13,0.0,7.0,53,0.00,,,0.00,Wunderground v.1.13,2013-07-02 13:25:00,
2013-07-02 08:35:00,65.3,46.7,30.03,NNE,29,1.0,1.0,51,0.00,,,0.00,Wunderground v.1.13,2013-07-02 13:35:00,
2013-07-02 08:45:00,65.8,45.6,30.03,NE,41,1.0,7.0,48,0.00,,,0.00,Wunderground v.1.13,2013-07-02 13:45:00,
2013-07-02 08:50:00,66.3,45.5,30.03,North,355,1.0,7.0,47,0.00,,,0.00,Wunderground v.1.13,2013-07-02 13:50:00,
2013-07-02 09:00:00,66.9,45.4,30.03,NNE,19,1.0,1.0,46,0.00,,,0.00,Wunderground v.1.13,2013-07-02 14:00:00,
2013-07-02 09:05:00,67.4,45.9,30.03,ESE,113,1.0,1.0,46,0.00,,,0.00,Wunderground v.1.13,2013-07-02 14:05:00,
2013-07-02 09:15:00,67.8,47.4,30.03,NNE,28,2.0,2.0,48,0.00,,,0.00,Wunderground v.1.13,2013-07-02 14:15:00,
2013-07-02 09:20:00,68.3,47.8,30.03,NNE,28,1.0,8.0,48,0.00,,,0.00,Wunderground v.1.13,2013-07-02 14:20:00,
2013-07-02 09:25:00,68.3,44.9,30.03,NNE,26,1.0,1.0,43,0.00,,,0.00,Wunderground v.1.13,2013-07-02 14:25:00,
2013-07-02 09:35:00,68.6,45.8,30.03,NNE,29,1.0,1.0,44,0.00,,,0.00,Wunderground v.1.13,2013-07-02 14:35:00,
2013-07-02 09:45:00,69.1,47.4,30.03,North,5,2.0,9.0,46,0.00,,,0.00,Wunderground v.1.13,2013-07-02 14:45:00,
2013-07-02 09:50:00,69.3,46.4,30.03,NNE,26,1.0,1.0,44,0.00,,,0.00,Wunderground v.1.13,2013-07-02 14:50:00,
2013-07-02 10:00:00,69.9,46.4,30.02,NE,36,1.0,9.0,43,0.00,,,0.00,Wunderground v.1.13,2013-07-02 15:00:00,
2013-07-02 10:05:00,69.9,44.5,30.02,NE,40,2.0,2.0,40,0.00,,,0.00,Wunderground v.1.13,2013-07-02 15:05:00,
2013-07-02 10:15:00,70.1,46.6,30.02,NE,53,1.0,9.0,43,0.00,,,0.00,Wunderground v.1.13,2013-07-02 15:15:00,
2013-07-02 10:20:00,69.9,45.1,30.02,ENE,66,3.0,9.0,41,0.00,,,0.00,Wunderground v.1.13,2013-07-02 15:20:00,
2013-07-02 10:30:00,70.3,44.8,30.03,NNW,336,2.0,9.0,40,0.00,,,0.00,Wunderground v.1.13,2013-07-02 15:30:00,
2013-07-02 10:35:00,70.4,44.9,30.03,NNE,16,2.0,2.0,40,0.00,,,0.00,Wunderground v.1.13,2013-07-02 15:35:00,
2013-07-02 10:40:00,70.8,49.0,30.03,NNE,24,2.0,10.0,46,0.00,,,0.00,Wunderground v.1.13,2013-07-02 15:40:00,
2013-07-02 10:45:00,70.9,44.7,30.02,NNE,32,2.0,10.0,39,0.00,,,0.00,Wunderground v.1.13,2013-07-02 15:45:00,
2013-07-02 10:55:00,70.6,47.0,30.02,NNE,22,1.0,1.0,43,0.00,,,0.00,Wunderground v.1.13,2013-07-02 15:55:00,
2013-07-02 11:05:00,70.6,46.4,30.02,NE,46,2.0,13.0,42,0.00,,,0.00,Wunderground v.1.13,2013-07-02 16:05:00,
2013-07-02 11:15:00,71.3,45.7,30.02,NNE,19,1.0,13.0,40,0.00,,,0.00,Wunderground v.1.13,2013-07-02 16:15:00,
2013-07-02 11:25:00,70.8,43.9,30.02,NE,38,3.0,3.0,38,0.00,,,0.00,Wunderground v.1.13,2013-07-02 16:25:00,
2013-07-02 11:35:00,71.1,41.3,30.02,NNE,29,2.0,2.0,34,0.00,,,0.00,Wunderground v.1.13,2013-07-02 16:35:00,
2013-07-02 11:40:00,71.3,41.5,30.02,NNE,30,1.0,11.0,34,0.00,,,0.00,Wunderground v.1.13,2013-07-02 16:40:00,
2013-07-02 11:50:00,71.8,41.1,30.02,NE,46,2.0,2.0,33,0.00,,,0.00,Wunderground v.1.13,2013-07-02 16:50:00,
2013-07-02 12:00:00,72.1,40.6,30.02,NNE,15,2.0,11.0,32,0.00,,,0.00,Wunderground v.1.13,2013-07-02 17:00:00,
2013-07-02 12:05:00,72.1,42.2,30.02,NE,36,3.0,3.0,34,0.00,,,0.00,Wunderground v.1.13,2013-07-02 17:05:00,
2013-07-02 12:15:00,72.0,38.9,30.02,NNE,22,3.0,12.0,30,0.00,,,0.00,Wunderground v.1.13,2013-07-02 17:15:00,
2013-07-02 12:20:00,72.0,42.8,30.02,NNE,23,5.0,5.0,35,0.00,,,0.00,Wunderground v.1.13,2013-07-02 17:20:00,
2013-07-02 12:30:00,72.3,40.8,30.02,NE,38,2.0,2.0,32,0.00,,,0.00,Wunderground v.1.13,2013-07-02 17:30:00,
2013-07-02 12:40:00,72.3,40.8,30.02,NE,49,1.0,11.0,32,0.00,,,0.00,Wunderground v.1.13,2013-07-02 17:40:00,
2013-07-02 12:50:00,72.0,39.7,30.02,NE,53,2.0,11.0,31,0.00,,,0.00,Wunderground v.1.13,2013-07-02 17:50:00,
2013-07-02 13:00:00,72.3,39.1,30.02,NNW,327,3.0,3.0,30,0.00,,,0.00,Wunderground v.1.13,2013-07-02 18:00:00,
2013-07-02 13:05:00,72.5,41.7,30.02,NNW,334,2.0,11.0,33,0.00,,,0.00,Wunderground v.1.13,2013-07-02 18:05:00,
2013-07-02 13:15:00,72.7,42.7,30.01,NE,40,4.0,4.0,34,0.00,,,0.00,Wunderground v.1.13,2013-07-02 18:15:00,
2013-07-02 13:25:00,72.7,44.9,30.01,NNE,22,1.0,1.0,37,0.00,,,0.00,Wunderground v.1.13,2013-07-02 18:25:00,
2013-07-02 13:35:00,72.1,40.6,30.01,NE,48,4.0,4.0,32,0.00,,,0.00,Wunderground v.1.13,2013-07-02 18:35:00,
2013-07-02 13:45:00,71.8,40.3,30.01,ENE,69,3.0,3.0,32,0.00,,,0.00,Wunderground v.1.13,2013-07-02 18:45:00,
2013-07-02 13:55:00,73.5,41.0,30.01,NNE,12,2.0,12.0,31,0.00,,,0.00,Wunderground v.1.13,2013-07-02 18:55:00,
2013-07-02 14:00:00,73.9,40.5,30.01,NNE,26,4.0,12.0,30,0.00,,,0.00,Wunderground v.1.13,2013-07-02 19:00:00,
2013-07-02 14:05:00,73.7,44.3,30.01,North,360,5.0,14.0,35,0.00,,,0.00,Wunderground v.1.13,2013-07-02 19:05:00,
2013-07-02 14:15:00,73.9,42.2,30.00,NNE,13,3.0,3.0,32,0.00,,,0.00,Wunderground v.1.13,2013-07-02 19:15:00,
2013-07-02 14:25:00,73.9,38.7,30.00,NE,38,3.0,3.0,28,0.00,,,0.00,Wunderground v.1.13,2013-07-02 19:25:00,
2013-07-02 14:30:00,73.7,38.6,30.00,NE,36,2.0,2.0,28,0.00,,,0.00,Wunderground v.1.13,2013-07-02 19:30:00,
2013-07-02 14:40:00,73.5,42.6,30.00,NE,42,3.0,12.0,33,0.00,,,0.00,Wunderground v.1.13,2013-07-02 19:40:00,
2013-07-02 14:45:00,74.0,43.1,30.00,NE,47,3.0,3.0,33,0.00,,,0.00,Wunderground v.1.13,2013-07-02 19:45:00,
2013-07-02 14:50:00,74.7,48.8,30.00,NE,43,1.0,1.0,40,0.00,,,0.00,Wunderground v.1.13,2013-07-02 19:50:00,
2013-07-02 15:00:00,75.3,47.2,29.99,NNE,26,1.0,1.0,37,0.00,,,0.00,Wunderground v.1.13,2013-07-02 20:00:00,
2013-07-02 15:05:00,75.3,47.2,29.99,North,9,1.0,11.0,37,0.00,,,0.00,Wunderground v.1.13,2013-07-02 20:05:00,
2013-07-02 15:15:00,74.4,47.1,29.99,North,355,4.0,4.0,38,0.00,,,0.00,Wunderground v.1.13,2013-07-02 20:15:00,
2013-07-02 15:25:00,73.9,47.4,29.99,NE,44,2.0,2.0,39,0.00,,,0.00,Wunderground v.1.13,2013-07-02 20:25:00,
2013-07-02 15:30:00,74.0,46.8,29.99,NNE,17,3.0,3.0,38,0.00,,,0.00,Wunderground v.1.13,2013-07-02 20:30:00,
2013-07-02 15:40:00,74.4,51.7,29.99,NE,42,2.0,13.0,45,0.00,,,0.00,Wunderground v.1.13,2013-07-02 20:40:00,
2013-07-02 15:50:00,74.2,52.1,29.99,ESE,102,1.0,13.0,46,0.00,,,0.00,Wunderground v.1.13,2013-07-02 20:50:00,
2013-07-02 16:00:00,74.4,51.1,29.98,NE,40,3.0,3.0,44,0.00,,,0.00,Wunderground v.1.13,2013-07-02 21:00:00,
2013-07-02 16:05:00,75.3,52.5,29.98,NE,53,3.0,3.0,45,0.00,,,0.00,Wunderground v.1.13,2013-07-02 21:05:00,
2013-07-02 16:15:00,74.7,51.3,29.99,ENE,59,2.0,2.0,44,0.00,,,0.00,Wunderground v.1.13,2013-07-02 21:15:00,
2013-07-02 16:25:00,73.9,51.2,29.99,ESE,102,2.0,2.0,45,0.00,,,0.00,Wunderground v.1.13,2013-07-02 21:25:00,
2013-07-02 16:30:00,73.5,50.2,29.99,East,96,2.0,9.0,44,0.00,,,0.00,Wunderground v.1.13,2013-07-02 21:30:00,
2013-07-02 16:40:00,72.5,50.5,29.99,ESE,104,1.0,1.0,46,0.00,,,0.00,Wunderground v.1.13,2013-07-02 21:40:00,
2013-07-02 16:45:00,72.1,51.3,29.99,ENE,76,0.0,10.0,48,0.00,,,0.00,Wunderground v.1.13,2013-07-02 21:45:00,
2013-07-02 16:55:00,71.6,51.4,29.99,ESE,103,0.0,10.0,49,0.00,,,0.00,Wunderground v.1.13,2013-07-02 21:55:00,
2013-07-02 17:05:00,70.8,51.8,29.99,ESE,111,1.0,1.0,51,0.00,,,0.00,Wunderground v.1.13,2013-07-02 22:05:00,
2013-07-02 17:15:00,70.4,49.8,29.99,ESE,102,2.0,9.0,48,0.00,,,0.00,Wunderground v.1.13,2013-07-02 22:15:00,
2013-07-02 17:20:00,69.9,50.4,29.99,East,92,2.0,2.0,50,0.00,,,0.00,Wunderground v.1.13,2013-07-02 22:20:00,
2013-07-02 17:30:00,68.6,48.7,30.00,NE,56,1.0,1.0,49,0.00,,,0.00,Wunderground v.1.13,2013-07-02 22:30:00,
2013-07-02 17:40:00,68.4,50.1,30.00,ESE,103,0.0,8.0,52,0.00,,,0.00,Wunderground v.1.13,2013-07-02 22:40:00,
2013-07-02 17:50:00,68.1,49.3,30.00,NNE,19,1.0,8.0,51,0.00,,,0.00,Wunderground v.1.13,2013-07-02 22:50:00,
2013-07-02 17:55:00,67.9,48.6,30.00,East,89,1.0,8.0,50,0.00,,,0.00,Wunderground v.1.13,2013-07-02 22:55:00,
2013-07-02 18:00:00,67.8,49.0,30.00,NNE,26,1.0,1.0,51,0.00,,,0.00,Wunderground v.1.13,2013-07-02 23:00:00,
2013-07-02 18:05:00,67.6,49.3,30.00,NNE,29,0.0,6.0,52,0.00,,,0.00,Wunderground v.1.13,2013-07-02 23:05:00,
2013-07-02 18:15:00,67.6,49.9,30.00,NE,52,0.0,6.0,53,0.00,,,0.00,Wunderground v.1.13,2013-07-02 23:15:00,
2013-07-02 18:20:00,67.4,49.7,30.00,NE,53,0.0,6.0,53,0.00,,,0.00,Wunderground v.1.13,2013-07-02 23:20:00,
2013-07-02 18:30:00,67.6,49.9,29.99,NE,39,0.0,6.0,53,0.00,,,0.00,Wunderground v.1.13,2013-07-02 23:30:00,
2013-07-02 18:35:00,67.4,49.2,29.99,NE,39,0.0,8.0,52,0.00,,,0.00,Wunderground v.1.13,2013-07-02 23:35:00,
2013-07-02 18:45:00,67.1,46.7,30.00,NE,37,0.0,8.0,48,0.00,,,0.00,Wunderground v.1.13,2013-07-02 23:45:00,
2013-07-02 18:50:00,67.1,47.3,30.00,NNE,30,0.0,8.0,49,0.00,,,0.00,Wunderground v.1.13,2013-07-02 23:50:00,
2013-07-02 19:00:00,67.3,49.6,30.00,NE,36,0.0,8.0,53,0.00,,,0.00,Wunderground v.1.13,2013-07-03 00:00:00,
2013-07-02 19:05:00,67.1,48.9,30.00,NNE,30,0.0,5.0,52,0.00,,,0.00,Wunderground v.1.13,2013-07-03 00:05:00,
2013-07-02 19:15:00,66.4,48.7,30.00,NNE,31,0.0,5.0,53,0.00,,,0.00,Wunderground v.1.13,2013-07-03 00:15:00,
2013-07-02 19:20:00,66.3,48.7,30.00,NNE,30,0.0,5.0,53,0.00,,,0.00,Wunderground v.1.13,2013-07-03 00:20:00,
2013-07-02 19:25:00,66.1,48.0,30.00,NNE,31,0.0,5.0,52,0.00,,,0.00,Wunderground v.1.13,2013-07-03 00:25:00,
2013-07-02 19:30:00,66.1,48.5,29.99,NNE,30,0.0,5.0,53,0.00,,,0.00,Wunderground v.1.13,2013-07-03 00:30:00,
2013-07-02 19:35:00,66.0,48.4,29.99,NNE,31,0.0,2.0,53,0.00,,,0.00,Wunderground v.1.13,2013-07-03 00:35:00,
2013-07-02 19:40:00,65.8,47.7,29.99,NNE,31,0.0,2.0,52,0.00,,,0.00,Wunderground v.1.13,2013-07-03 00:40:00,
2013-07-02 19:45:00,65.6,48.5,29.99,NNE,31,0.0,2.0,54,0.00,,,0.00,Wunderground v.1.13,2013-07-03 00:45:00,
2013-07-02 19:55:00,65.3,48.7,29.99,NNE,31,0.0,2.0,55,0.00,,,0.00,Wunderground v.1.13,2013-07-03 00:55:00,
2013-07-02 20:00:00,65.0,48.4,29.99,NNE,31,0.0,2.0,55,0.00,,,0.00,Wunderground v.1.13,2013-07-03 01:00:00,
2013-07-02 20:05:00,64.8,48.7,29.99,NNE,31,0.0,4.0,56,0.00,,,0.00,Wunderground v.1.13,2013-07-03 01:05:00,
2013-07-02 20:10:00,64.7,48.6,29.99,NNE,31,0.0,4.0,56,0.00,,,0.00,Wunderground v.1.13,2013-07-03 01:10:00,
2013-07-02 20:20:00,63.9,46.9,29.99,North,5,0.0,4.0,54,0.00,,,0.00,Wunderground v.1.13,2013-07-03 01:20:00,
2013-07-02 20:30:00,63.2,47.2,29.99,North,5,0.0,4.0,56,0.00,,,0.00,Wunderground v.1.13,2013-07-03 01:30:00,
2013-07-02 20:40:00,62.4,47.0,29.99,NE,41,0.0,1.0,57,0.00,,,0.00,Wunderground v.1.13,2013-07-03 01:40:00,
2013-07-02 20:45:00,62.1,46.7,30.00,NE,41,0.0,1.0,57,0.00,,,0.00,Wunderground v.1.13,2013-07-03 01:45:00,
2013-07-02 20:50:00,61.6,46.2,30.00,NE,41,0.0,1.0,57,0.00,,,0.00,Wunderground v.1.13,2013-07-03 01:50:00,
2013-07-02 21:00:00,61.2,45.8,30.00,NE,41,0.0,1.0,57,0.00,,,0.00,Wunderground v.1.13,2013-07-03 02:00:00,
2013-07-02 21:05:00,60.7,45.4,30.00,NE,41,0.0,5.0,57,0.00,,,0.00,Wunderground v.1.13,2013-07-03 02:05:00,
2013-07-02 21:15:00,60.2,44.9,30.00,NE,41,0.0,5.0,57,0.00,,,0.00,Wunderground v.1.13,2013-07-03 02:15:00,
2013-07-02 21:30:00,59.8,44.5,30.00,NE,41,0.0,5.0,57,0.00,,,0.00,Wunderground v.1.13,2013-07-03 02:30:00,
2013-07-02 21:40:00,59.6,44.8,30.00,NE,41,0.0,0.0,58,0.00,,,0.00,Wunderground v.1.13,2013-07-03 02:40:00,
2013-07-02 21:50:00,59.6,44.8,30.00,NE,41,0.0,0.0,58,0.00,,,0.00,Wunderground v.1.13,2013-07-03 02:50:00,
2013-07-02 22:00:00,59.6,45.2,30.00,NE,41,0.0,0.0,59,0.00,,,0.00,Wunderground v.1.13,2013-07-03 03:00:00,
2013-07-02 22:05:00,59.6,45.2,30.00,NE,41,0.0,0.0,59,0.00,,,0.00,Wunderground v.1.13,2013-07-03 03:05:00,
2013-07-02 22:15:00,59.6,44.8,30.00,NE,41,0.0,0.0,58,0.00,,,0.00,Wunderground v.1.13,2013-07-03 03:15:00,
2013-07-02 22:20:00,59.6,44.3,30.00,NE,41,0.0,0.0,57,0.00,,,0.00,Wunderground v.1.13,2013-07-03 03:20:00,
2013-07-02 22:30:00,59.8,45.0,30.00,NE,41,0.0,0.0,58,0.00,,,0.00,Wunderground v.1.13,2013-07-03 03:30:00,
2013-07-02 22:35:00,59.8,45.0,30.00,NE,41,0.0,1.0,58,0.00,,,0.00,Wunderground v.1.13,2013-07-03 03:35:00,
2013-07-02 22:40:00,59.9,45.5,30.00,NE,41,0.0,1.0,59,0.00,,,0.00,Wunderground v.1.13,2013-07-03 03:40:00,
2013-07-02 22:50:00,59.9,45.1,30.00,NE,39,0.0,1.0,58,0.00,,,0.00,Wunderground v.1.13,2013-07-03 03:50:00,
2013-07-02 23:00:00,60.1,45.7,30.00,NE,40,0.0,1.0,59,0.00,,,0.00,Wunderground v.1.13,2013-07-03 04:00:00,
2013-07-02 23:05:00,60.2,45.4,30.00,NE,38,0.0,0.0,58,0.00,,,0.00,Wunderground v.1.13,2013-07-03 04:05:00,
2013-07-02 23:10:00,60.2,45.8,30.00,NE,38,0.0,0.0,59,0.00,,,0.00,Wunderground v.1.13,2013-07-03 04:10:00,
2013-07-02 23:20:00,60.2,46.3,30.00,NE,38,0.0,0.0,60,0.00,,,0.00,Wunderground v.1.13,2013-07-03 04:20:00,
2013-07-02 23:25:00,60.2,46.3,30.00,NE,38,0.0,0.0,60,0.00,,,0.00,Wunderground v.1.13,2013-07-03 04:25:00,
2013-07-02 23:35:00,60.2,46.3,30.00,NE,38,0.0,3.0,60,0.00,,,0.00,Wunderground v.1.13,2013-07-03 04:35:00,
2013-07-02 23:40:00,60.4,46.4,30.00,NE,38,0.0,3.0,60,0.00,,,0.00,Wunderground v.1.13,2013-07-03 04:40:00,
2013-07-02 23:50:00,60.2,46.7,29.99,NE,38,0.0,3.0,61,0.00,,,0.00,Wunderground v.1.13,2013-07-03 04:50:00,
2013-07-02 23:55:00,60.2,46.7,29.99,NE,38,0.0,3.0,61,0.00,,,0.00,Wunderground v.1.13,2013-07-03 04:55:00,